Philipsburg, Montana
Current Conditions -  °F | °C
As of 4:01 AM on Sunday 23 Nov 2014 (Local Time) from KBTM Reporting Station
Light Snow Light Snow  
Wind Chill: -8°   Ceiling: 3800
Heat Index: -3°   Visibility: 9mi
Dew Point: -7°   Wind: 8mph
Humidity: 78%   Direction: 300°WNW
Pressure: 29.9"   Gusts: NA
Location:  46.33°N, 113.29°W
Report Text: KBTM 231101Z AUTO 30007KT 9SM -SN FEW013 BKN038 OVC046 M03/M07 A2990 RMK AO2 P0000 T10331067
Loading
Personal Weather Stations






























Interactive Weather Map New forecast layout! Learn more

10-Day Weather Forecast

Advertisements
Track Severe Weather on mobile